sensor_id;sensor_type;location;lat;lon;timestamp;P1;durP1;ratioP1;P2;durP2;ratioP2
60257;SDS011;46115;44.484;11.314;2024-03-25T00:06:49;5.73;;;2.87;;
60257;SDS011;46115;44.484;11.314;2024-03-25T00:14:56;5.97;;;2.55;;
60257;SDS011;46115;44.484;11.314;2024-03-25T00:23:00;4.80;;;2.83;;
60257;SDS011;46115;44.484;11.314;2024-03-25T00:31:06;5.03;;;2.53;;
60257;SDS011;46115;44.484;11.314;2024-03-25T00:39:11;5.10;;;2.80;;
60257;SDS011;46115;44.484;11.314;2024-03-25T00:43:16;7.50;;;2.70;;
60257;SDS011;46115;44.484;11.314;2024-03-25T00:47:18;8.20;;;2.88;;
60257;SDS011;46115;44.484;11.314;2024-03-25T00:55:23;4.72;;;2.72;;
60257;SDS011;46115;44.484;11.314;2024-03-25T00:59:27;6.32;;;3.20;;
60257;SDS011;46115;44.484;11.314;2024-03-25T01:03:29;6.00;;;2.60;;
60257;SDS011;46115;44.484;11.314;2024-03-25T01:11:33;4.80;;;2.40;;
60257;SDS011;46115;44.484;11.314;2024-03-25T01:15:37;5.57;;;2.58;;
60257;SDS011;46115;44.484;11.314;2024-03-25T01:19:40;4.60;;;2.28;;
60257;SDS011;46115;44.484;11.314;2024-03-25T01:27:44;4.28;;;2.40;;
60257;SDS011;46115;44.484;11.314;2024-03-25T01:31:48;4.00;;;2.00;;
60257;SDS011;46115;44.484;11.314;2024-03-25T01:35:51;4.55;;;2.20;;
60257;SDS011;46115;44.484;11.314;2024-03-25T01:39:55;4.85;;;2.10;;
60257;SDS011;46115;44.484;11.314;2024-03-25T01:48:02;3.10;;;2.00;;
60257;SDS011;46115;44.484;11.314;2024-03-25T01:52:05;4.35;;;2.10;;
60257;SDS011;46115;44.484;11.314;2024-03-25T01:56:08;5.18;;;2.22;;
60257;SDS011;46115;44.484;11.314;2024-03-25T02:00:12;3.45;;;2.03;;
60257;SDS011;46115;44.484;11.314;2024-03-25T02:04:26;4.65;;;2.50;;
60257;SDS011;46115;44.484;11.314;2024-03-25T02:08:29;2.85;;;1.90;;
60257;SDS011;46115;44.484;11.314;2024-03-25T02:12:33;5.47;;;2.25;;
60257;SDS011;46115;44.484;11.314;2024-03-25T02:16:36;3.92;;;1.85;;
60257;SDS011;46115;44.484;11.314;2024-03-25T02:24:42;3.70;;;2.15;;
60257;SDS011;46115;44.484;11.314;2024-03-25T02:28:48;4.07;;;2.20;;
60257;SDS011;46115;44.484;11.314;2024-03-25T02:32:51;4.30;;;2.08;;
60257;SDS011;46115;44.484;11.314;2024-03-25T02:36:52;3.78;;;1.90;;
60257;SDS011;46115;44.484;11.314;2024-03-25T02:40:55;4.28;;;2.40;;
60257;SDS011;46115;44.484;11.314;2024-03-25T02:44:59;4.05;;;2.30;;
60257;SDS011;46115;44.484;11.314;2024-03-25T02:49:01;4.13;;;2.20;;
60257;SDS011;46115;44.484;11.314;2024-03-25T03:01:10;3.25;;;2.05;;
60257;SDS011;46115;44.484;11.314;2024-03-25T03:05:13;5.32;;;2.10;;
60257;SDS011;46115;44.484;11.314;2024-03-25T03:09:15;4.38;;;2.10;;
60257;SDS011;46115;44.484;11.314;2024-03-25T03:13:16;4.60;;;2.10;;
60257;SDS011;46115;44.484;11.314;2024-03-25T03:17:20;4.05;;;2.13;;
60257;SDS011;46115;44.484;11.314;2024-03-25T03:21:23;4.35;;;2.40;;
60257;SDS011;46115;44.484;11.314;2024-03-25T03:29:27;4.40;;;2.30;;
60257;SDS011;46115;44.484;11.314;2024-03-25T03:33:32;5.30;;;2.40;;
60257;SDS011;46115;44.484;11.314;2024-03-25T03:37:34;3.63;;;2.10;;
60257;SDS011;46115;44.484;11.314;2024-03-25T03:45:38;4.13;;;2.07;;
60257;SDS011;46115;44.484;11.314;2024-03-25T03:49:43;3.85;;;2.30;;
60257;SDS011;46115;44.484;11.314;2024-03-25T03:53:45;4.15;;;2.17;;
60257;SDS011;46115;44.484;11.314;2024-03-25T03:57:48;3.80;;;2.08;;
60257;SDS011;46115;44.484;11.314;2024-03-25T04:05:54;3.83;;;2.07;;
60257;SDS011;46115;44.484;11.314;2024-03-25T04:09:57;2.95;;;1.90;;
60257;SDS011;46115;44.484;11.314;2024-03-25T04:13:59;3.45;;;2.00;;
60257;SDS011;46115;44.484;11.314;2024-03-25T04:22:05;5.15;;;1.85;;
60257;SDS011;46115;44.484;11.314;2024-03-25T04:26:07;3.40;;;2.20;;
60257;SDS011;46115;44.484;11.314;2024-03-25T04:30:10;3.58;;;1.88;;
60257;SDS011;46115;44.484;11.314;2024-03-25T04:34:13;4.50;;;1.90;;
60257;SDS011;46115;44.484;11.314;2024-03-25T04:42:18;3.58;;;1.90;;
60257;SDS011;46115;44.484;11.314;2024-03-25T04:46:20;5.70;;;1.93;;
60257;SDS011;46115;44.484;11.314;2024-03-25T04:50:21;2.78;;;1.80;;
60257;SDS011;46115;44.484;11.314;2024-03-25T04:54:24;4.90;;;2.05;;
60257;SDS011;46115;44.484;11.314;2024-03-25T04:58:26;3.67;;;2.00;;
60257;SDS011;46115;44.484;11.314;2024-03-25T05:02:27;5.43;;;2.00;;
60257;SDS011;46115;44.484;11.314;2024-03-25T05:06:29;5.43;;;1.90;;
60257;SDS011;46115;44.484;11.314;2024-03-25T05:10:32;4.63;;;1.80;;
60257;SDS011;46115;44.484;11.314;2024-03-25T05:14:33;4.50;;;1.85;;
60257;SDS011;46115;44.484;11.314;2024-03-25T05:18:37;4.47;;;1.90;;
60257;SDS011;46115;44.484;11.314;2024-03-25T05:22:39;5.13;;;1.73;;
60257;SDS011;46115;44.484;11.314;2024-03-25T05:26:42;4.47;;;1.90;;
60257;SDS011;46115;44.484;11.314;2024-03-25T05:30:43;2.75;;;1.70;;
60257;SDS011;46115;44.484;11.314;2024-03-25T05:34:45;3.83;;;1.83;;
60257;SDS011;46115;44.484;11.314;2024-03-25T05:38:47;3.93;;;1.50;;
60257;SDS011;46115;44.484;11.314;2024-03-25T05:42:49;3.03;;;1.65;;
60257;SDS011;46115;44.484;11.314;2024-03-25T05:46:51;5.07;;;1.75;;
60257;SDS011;46115;44.484;11.314;2024-03-25T05:50:59;2.50;;;1.58;;
60257;SDS011;46115;44.484;11.314;2024-03-25T05:55:01;2.83;;;1.60;;
60257;SDS011;46115;44.484;11.314;2024-03-25T05:59:04;3.47;;;1.57;;
60257;SDS011;46115;44.484;11.314;2024-03-25T06:03:05;2.25;;;1.42;;
60257;SDS011;46115;44.484;11.314;2024-03-25T06:07:07;4.30;;;1.45;;
60257;SDS011;46115;44.484;11.314;2024-03-25T06:11:08;4.10;;;1.73;;
60257;SDS011;46115;44.484;11.314;2024-03-25T06:15:11;3.17;;;1.60;;
60257;SDS011;46115;44.484;11.314;2024-03-25T06:19:12;2.83;;;1.35;;
60257;SDS011;46115;44.484;11.314;2024-03-25T06:23:21;1.73;;;1.20;;
60257;SDS011;46115;44.484;11.314;2024-03-25T06:27:24;3.65;;;2.00;;
60257;SDS011;46115;44.484;11.314;2024-03-25T06:31:27;3.55;;;1.40;;
60257;SDS011;46115;44.484;11.314;2024-03-25T06:35:46;3.63;;;1.30;;
60257;SDS011;46115;44.484;11.314;2024-03-25T06:43:50;3.20;;;1.20;;
60257;SDS011;46115;44.484;11.314;2024-03-25T06:47:53;2.97;;;1.27;;
60257;SDS011;46115;44.484;11.314;2024-03-25T06:51:54;3.95;;;1.33;;
60257;SDS011;46115;44.484;11.314;2024-03-25T06:55:56;2.70;;;1.37;;
60257;SDS011;46115;44.484;11.314;2024-03-25T06:59:58;3.55;;;1.17;;
60257;SDS011;46115;44.484;11.314;2024-03-25T07:04:01;2.10;;;1.40;;
60257;SDS011;46115;44.484;11.314;2024-03-25T07:08:03;2.47;;;1.30;;
60257;SDS011;46115;44.484;11.314;2024-03-25T07:12:05;1.80;;;1.27;;
60257;SDS011;46115;44.484;11.314;2024-03-25T07:20:10;2.38;;;1.10;;
60257;SDS011;46115;44.484;11.314;2024-03-25T07:24:11;2.63;;;1.20;;
60257;SDS011;46115;44.484;11.314;2024-03-25T07:28:13;3.37;;;1.10;;
60257;SDS011;46115;44.484;11.314;2024-03-25T07:32:14;1.65;;;1.10;;
60257;SDS011;46115;44.484;11.314;2024-03-25T07:36:17;1.60;;;1.00;;
60257;SDS011;46115;44.484;11.314;2024-03-25T07:40:19;3.00;;;1.08;;
60257;SDS011;46115;44.484;11.314;2024-03-25T07:48:22;2.60;;;1.10;;
60257;SDS011;46115;44.484;11.314;2024-03-25T07:52:25;2.75;;;0.90;;
60257;SDS011;46115;44.484;11.314;2024-03-25T07:56:26;2.25;;;0.90;;
60257;SDS011;46115;44.484;11.314;2024-03-25T08:00:28;2.00;;;1.00;;
60257;SDS011;46115;44.484;11.314;2024-03-25T08:04:29;2.45;;;1.02;;
60257;SDS011;46115;44.484;11.314;2024-03-25T08:08:32;10.18;;;1.02;;
60257;SDS011;46115;44.484;11.314;2024-03-25T08:12:34;2.28;;;0.80;;
60257;SDS011;46115;44.484;11.314;2024-03-25T08:16:35;1.58;;;0.75;;
60257;SDS011;46115;44.484;11.314;2024-03-25T08:20:37;1.20;;;0.70;;
60257;SDS011;46115;44.484;11.314;2024-03-25T08:24:40;2.33;;;0.95;;
60257;SDS011;46115;44.484;11.314;2024-03-25T08:28:41;2.65;;;0.80;;
60257;SDS011;46115;44.484;11.314;2024-03-25T08:32:43;1.38;;;1.00;;
60257;SDS011;46115;44.484;11.314;2024-03-25T08:36:44;2.95;;;1.23;;
60257;SDS011;46115;44.484;11.314;2024-03-25T08:40:47;2.03;;;1.00;;
60257;SDS011;46115;44.484;11.314;2024-03-25T08:44:48;4.13;;;1.10;;
60257;SDS011;46115;44.484;11.314;2024-03-25T08:48:50;3.03;;;1.13;;
60257;SDS011;46115;44.484;11.314;2024-03-25T08:56:54;2.67;;;1.20;;
60257;SDS011;46115;44.484;11.314;2024-03-25T09:00:55;3.33;;;1.40;;
60257;SDS011;46115;44.484;11.314;2024-03-25T09:04:57;1.90;;;1.13;;
60257;SDS011;46115;44.484;11.314;2024-03-25T09:08:58;2.70;;;1.30;;
60257;SDS011;46115;44.484;11.314;2024-03-25T09:13:19;3.42;;;1.30;;
60257;SDS011;46115;44.484;11.314;2024-03-25T09:17:21;2.47;;;1.00;;
60257;SDS011;46115;44.484;11.314;2024-03-25T09:29:26;3.37;;;1.23;;
60257;SDS011;46115;44.484;11.314;2024-03-25T09:33:28;3.10;;;1.30;;
60257;SDS011;46115;44.484;11.314;2024-03-25T09:41:31;1.67;;;1.13;;
60257;SDS011;46115;44.484;11.314;2024-03-25T09:45:39;4.10;;;1.50;;
60257;SDS011;46115;44.484;11.314;2024-03-25T09:49:41;3.97;;;1.50;;
60257;SDS011;46115;44.484;11.314;2024-03-25T09:53:44;4.85;;;1.58;;
60257;SDS011;46115;44.484;11.314;2024-03-25T09:57:46;5.22;;;2.10;;
60257;SDS011;46115;44.484;11.314;2024-03-25T10:01:49;2.58;;;1.65;;
60257;SDS011;46115;44.484;11.314;2024-03-25T10:05:51;3.58;;;2.00;;
60257;SDS011;46115;44.484;11.314;2024-03-25T10:09:52;4.82;;;1.92;;
60257;SDS011;46115;44.484;11.314;2024-03-25T10:13:57;7.20;;;2.60;;
60257;SDS011;46115;44.484;11.314;2024-03-25T10:18:00;5.40;;;2.50;;
60257;SDS011;46115;44.484;11.314;2024-03-25T10:22:02;6.85;;;2.33;;
60257;SDS011;46115;44.484;11.314;2024-03-25T10:26:05;2.90;;;2.00;;
60257;SDS011;46115;44.484;11.314;2024-03-25T10:30:07;5.40;;;3.10;;
60257;SDS011;46115;44.484;11.314;2024-03-25T10:34:11;5.22;;;2.60;;
60257;SDS011;46115;44.484;11.314;2024-03-25T10:38:12;6.82;;;2.55;;
60257;SDS011;46115;44.484;11.314;2024-03-25T10:42:18;8.65;;;3.03;;
60257;SDS011;46115;44.484;11.314;2024-03-25T10:46:20;5.57;;;2.60;;
60257;SDS011;46115;44.484;11.314;2024-03-25T10:50:26;5.88;;;2.75;;
60257;SDS011;46115;44.484;11.314;2024-03-25T10:54:30;5.57;;;3.17;;
60257;SDS011;46115;44.484;11.314;2024-03-25T10:58:35;7.22;;;3.20;;
60257;SDS011;46115;44.484;11.314;2024-03-25T11:02:37;6.65;;;3.47;;
60257;SDS011;46115;44.484;11.314;2024-03-25T11:06:40;8.38;;;3.60;;
60257;SDS011;46115;44.484;11.314;2024-03-25T11:10:42;4.63;;;3.40;;
60257;SDS011;46115;44.484;11.314;2024-03-25T11:14:45;9.05;;;3.55;;
60257;SDS011;46115;44.484;11.314;2024-03-25T11:18:50;7.90;;;3.90;;
60257;SDS011;46115;44.484;11.314;2024-03-25T11:22:53;10.75;;;3.80;;
60257;SDS011;46115;44.484;11.314;2024-03-25T11:26:55;7.32;;;3.40;;
60257;SDS011;46115;44.484;11.314;2024-03-25T11:30:56;5.28;;;3.78;;
60257;SDS011;46115;44.484;11.314;2024-03-25T11:34:58;7.18;;;4.07;;
60257;SDS011;46115;44.484;11.314;2024-03-25T11:39:01;6.18;;;3.50;;
60257;SDS011;46115;44.484;11.314;2024-03-25T11:43:03;8.40;;;3.92;;
60257;SDS011;46115;44.484;11.314;2024-03-25T11:47:05;5.95;;;3.17;;
60257;SDS011;46115;44.484;11.314;2024-03-25T11:51:10;5.97;;;3.70;;
60257;SDS011;46115;44.484;11.314;2024-03-25T11:55:17;8.80;;;4.03;;
60257;SDS011;46115;44.484;11.314;2024-03-25T11:59:19;7.78;;;3.90;;
60257;SDS011;46115;44.484;11.314;2024-03-25T12:03:20;7.40;;;4.05;;
60257;SDS011;46115;44.484;11.314;2024-03-25T12:07:22;8.65;;;4.15;;
60257;SDS011;46115;44.484;11.314;2024-03-25T12:11:24;9.73;;;4.05;;
60257;SDS011;46115;44.484;11.314;2024-03-25T12:15:26;6.90;;;3.63;;
60257;SDS011;46115;44.484;11.314;2024-03-25T12:19:28;5.90;;;3.72;;
60257;SDS011;46115;44.484;11.314;2024-03-25T12:23:29;4.57;;;3.55;;
60257;SDS011;46115;44.484;11.314;2024-03-25T12:27:32;4.95;;;3.60;;
60257;SDS011;46115;44.484;11.314;2024-03-25T12:31:34;6.00;;;3.40;;
60257;SDS011;46115;44.484;11.314;2024-03-25T12:35:36;5.90;;;3.50;;
60257;SDS011;46115;44.484;11.314;2024-03-25T12:39:46;7.60;;;4.10;;
60257;SDS011;46115;44.484;11.314;2024-03-25T12:43:50;4.68;;;3.67;;
60257;SDS011;46115;44.484;11.314;2024-03-25T12:47:52;6.85;;;3.70;;
60257;SDS011;46115;44.484;11.314;2024-03-25T12:51:53;5.55;;;3.70;;
60257;SDS011;46115;44.484;11.314;2024-03-25T12:55:55;7.65;;;4.03;;
60257;SDS011;46115;44.484;11.314;2024-03-25T12:59:58;6.32;;;4.43;;
60257;SDS011;46115;44.484;11.314;2024-03-25T13:04:00;4.90;;;4.35;;
60257;SDS011;46115;44.484;11.314;2024-03-25T13:08:01;6.05;;;4.53;;
60257;SDS011;46115;44.484;11.314;2024-03-25T13:12:04;5.18;;;4.45;;
60257;SDS011;46115;44.484;11.314;2024-03-25T13:16:07;8.43;;;4.40;;
60257;SDS011;46115;44.484;11.314;2024-03-25T13:20:09;7.38;;;4.30;;
60257;SDS011;46115;44.484;11.314;2024-03-25T13:24:11;6.82;;;4.28;;
60257;SDS011;46115;44.484;11.314;2024-03-25T13:28:12;4.53;;;3.67;;
60257;SDS011;46115;44.484;11.314;2024-03-25T13:32:15;11.43;;;4.03;;
60257;SDS011;46115;44.484;11.314;2024-03-25T13:36:17;5.10;;;4.03;;
60257;SDS011;46115;44.484;11.314;2024-03-25T13:40:19;5.75;;;3.50;;
60257;SDS011;46115;44.484;11.314;2024-03-25T13:44:20;5.10;;;3.88;;
60257;SDS011;46115;44.484;11.314;2024-03-25T13:48:23;6.82;;;4.03;;
60257;SDS011;46115;44.484;11.314;2024-03-25T13:52:24;6.95;;;4.15;;
60257;SDS011;46115;44.484;11.314;2024-03-25T13:56:26;6.57;;;4.00;;
60257;SDS011;46115;44.484;11.314;2024-03-25T14:00:27;5.47;;;4.10;;
60257;SDS011;46115;44.484;11.314;2024-03-25T14:04:30;6.10;;;4.25;;
60257;SDS011;46115;44.484;11.314;2024-03-25T14:08:32;5.40;;;4.72;;
60257;SDS011;46115;44.484;11.314;2024-03-25T14:12:33;5.90;;;4.40;;
60257;SDS011;46115;44.484;11.314;2024-03-25T14:16:35;5.68;;;4.40;;
60257;SDS011;46115;44.484;11.314;2024-03-25T14:20:38;6.03;;;4.43;;
60257;SDS011;46115;44.484;11.314;2024-03-25T14:24:39;5.63;;;4.65;;
60257;SDS011;46115;44.484;11.314;2024-03-25T14:28:41;9.05;;;4.30;;
60257;SDS011;46115;44.484;11.314;2024-03-25T14:32:42;6.47;;;4.35;;
60257;SDS011;46115;44.484;11.314;2024-03-25T14:36:45;5.18;;;3.97;;
60257;SDS011;46115;44.484;11.314;2024-03-25T14:40:47;6.32;;;4.10;;
60257;SDS011;46115;44.484;11.314;2024-03-25T14:44:48;6.37;;;3.80;;
60257;SDS011;46115;44.484;11.314;2024-03-25T14:48:50;6.80;;;4.00;;
60257;SDS011;46115;44.484;11.314;2024-03-25T14:52:52;4.75;;;3.50;;
60257;SDS011;46115;44.484;11.314;2024-03-25T14:56:54;4.75;;;3.10;;
60257;SDS011;46115;44.484;11.314;2024-03-25T15:00:55;5.47;;;2.60;;
60257;SDS011;46115;44.484;11.314;2024-03-25T15:04:58;6.63;;;2.60;;
60257;SDS011;46115;44.484;11.314;2024-03-25T15:09:01;8.70;;;3.00;;
60257;SDS011;46115;44.484;11.314;2024-03-25T15:13:03;6.60;;;3.00;;
60257;SDS011;46115;44.484;11.314;2024-03-25T15:17:04;5.43;;;2.83;;
60257;SDS011;46115;44.484;11.314;2024-03-25T15:21:06;6.55;;;3.00;;
60257;SDS011;46115;44.484;11.314;2024-03-25T15:25:09;3.58;;;2.40;;
60257;SDS011;46115;44.484;11.314;2024-03-25T15:29:11;4.97;;;2.10;;
60257;SDS011;46115;44.484;11.314;2024-03-25T15:33:12;5.90;;;2.40;;
60257;SDS011;46115;44.484;11.314;2024-03-25T15:37:14;5.18;;;2.15;;
60257;SDS011;46115;44.484;11.314;2024-03-25T15:41:17;8.20;;;2.08;;
60257;SDS011;46115;44.484;11.314;2024-03-25T15:45:19;5.47;;;2.42;;
60257;SDS011;46115;44.484;11.314;2024-03-25T15:49:20;4.80;;;2.30;;
60257;SDS011;46115;44.484;11.314;2024-03-25T15:53:22;8.07;;;2.10;;
60257;SDS011;46115;44.484;11.314;2024-03-25T15:57:25;6.20;;;1.97;;
60257;SDS011;46115;44.484;11.314;2024-03-25T16:01:26;4.30;;;1.92;;
60257;SDS011;46115;44.484;11.314;2024-03-25T16:05:28;3.30;;;1.40;;
60257;SDS011;46115;44.484;11.314;2024-03-25T16:09:29;2.67;;;1.50;;
60257;SDS011;46115;44.484;11.314;2024-03-25T16:13:32;3.70;;;1.42;;
60257;SDS011;46115;44.484;11.314;2024-03-25T16:17:34;2.90;;;1.60;;
60257;SDS011;46115;44.484;11.314;2024-03-25T16:21:35;4.40;;;1.40;;
60257;SDS011;46115;44.484;11.314;2024-03-25T16:25:37;6.50;;;1.45;;
60257;SDS011;46115;44.484;11.314;2024-03-25T16:29:40;4.07;;;1.50;;
60257;SDS011;46115;44.484;11.314;2024-03-25T16:33:41;3.92;;;1.63;;
60257;SDS011;46115;44.484;11.314;2024-03-25T16:37:42;4.17;;;1.70;;
60257;SDS011;46115;44.484;11.314;2024-03-25T16:41:44;2.08;;;1.27;;
60257;SDS011;46115;44.484;11.314;2024-03-25T16:45:47;2.23;;;1.37;;
60257;SDS011;46115;44.484;11.314;2024-03-25T16:49:48;4.10;;;1.20;;
60257;SDS011;46115;44.484;11.314;2024-03-25T16:53:50;5.93;;;1.40;;
60257;SDS011;46115;44.484;11.314;2024-03-25T16:57:51;8.60;;;1.50;;
60257;SDS011;46115;44.484;11.314;2024-03-25T17:01:54;4.65;;;1.38;;
60257;SDS011;46115;44.484;11.314;2024-03-25T17:05:56;3.65;;;1.40;;
60257;SDS011;46115;44.484;11.314;2024-03-25T17:09:57;2.67;;;1.33;;
60257;SDS011;46115;44.484;11.314;2024-03-25T17:13:59;4.33;;;1.47;;
60257;SDS011;46115;44.484;11.314;2024-03-25T17:18:03;2.40;;;1.47;;
60257;SDS011;46115;44.484;11.314;2024-03-25T17:22:08;2.35;;;1.38;;
60257;SDS011;46115;44.484;11.314;2024-03-25T17:26:10;2.60;;;1.40;;
60257;SDS011;46115;44.484;11.314;2024-03-25T17:30:12;3.83;;;1.40;;
60257;SDS011;46115;44.484;11.314;2024-03-25T17:34:16;3.25;;;1.77;;
60257;SDS011;46115;44.484;11.314;2024-03-25T17:38:17;4.97;;;1.58;;
60257;SDS011;46115;44.484;11.314;2024-03-25T17:42:19;3.10;;;1.63;;
60257;SDS011;46115;44.484;11.314;2024-03-25T17:46:20;4.77;;;1.70;;
60257;SDS011;46115;44.484;11.314;2024-03-25T17:50:23;7.33;;;1.70;;
60257;SDS011;46115;44.484;11.314;2024-03-25T17:58:45;3.75;;;1.70;;
60257;SDS011;46115;44.484;11.314;2024-03-25T18:02:46;3.50;;;1.93;;
60257;SDS011;46115;44.484;11.314;2024-03-25T18:06:49;4.95;;;2.22;;
60257;SDS011;46115;44.484;11.314;2024-03-25T23:06:20;6.57;;;3.50;;
60257;SDS011;46115;44.484;11.314;2024-03-25T23:10:21;7.85;;;3.50;;
60257;SDS011;46115;44.484;11.314;2024-03-25T23:14:23;6.33;;;3.23;;
60257;SDS011;46115;44.484;11.314;2024-03-25T23:18:24;5.77;;;3.20;;
60257;SDS011;46115;44.484;11.314;2024-03-25T23:22:27;4.83;;;3.20;;
60257;SDS011;46115;44.484;11.314;2024-03-25T23:26:29;6.80;;;3.55;;
60257;SDS011;46115;44.484;11.314;2024-03-25T23:30:30;7.23;;;3.80;;
60257;SDS011;46115;44.484;11.314;2024-03-25T23:34:32;7.20;;;3.73;;
60257;SDS011;46115;44.484;11.314;2024-03-25T23:38:35;7.37;;;3.90;;
60257;SDS011;46115;44.484;11.314;2024-03-25T23:42:36;5.88;;;3.50;;
60257;SDS011;46115;44.484;11.314;2024-03-25T23:46:38;6.47;;;3.40;;
60257;SDS011;46115;44.484;11.314;2024-03-25T23:50:39;5.70;;;3.37;;
60257;SDS011;46115;44.484;11.314;2024-03-25T23:54:42;7.70;;;3.53;;
60257;SDS011;46115;44.484;11.314;2024-03-25T23:58:44;6.95;;;3.65;;
